sensor_id;sensor_type;location;lat;lon;timestamp;temperature;humidity
33825;DHT22;20127;48.962;8.342;2022-11-20T00:02:10;8.60;99.90
33825;DHT22;20127;48.962;8.342;2022-11-20T00:05:12;8.60;99.90
33825;DHT22;20127;48.962;8.342;2022-11-20T00:08:20;8.60;99.90
33825;DHT22;20127;48.962;8.342;2022-11-20T00:11:27;8.70;99.90
33825;DHT22;20127;48.962;8.342;2022-11-20T00:14:35;8.70;99.90
33825;DHT22;20127;48.962;8.342;2022-11-20T00:17:39;8.70;99.90
33825;DHT22;20127;48.962;8.342;2022-11-20T00:20:40;8.70;99.90
33825;DHT22;20127;48.962;8.342;2022-11-20T00:23:43;8.70;99.90
33825;DHT22;20127;48.962;8.342;2022-11-20T00:26:46;8.80;99.90
33825;DHT22;20127;48.962;8.342;2022-11-20T00:29:48;8.90;99.90
33825;DHT22;20127;48.962;8.342;2022-11-20T00:32:57;8.90;99.90
33825;DHT22;20127;48.962;8.342;2022-11-20T00:36:07;8.90;99.90
33825;DHT22;20127;48.962;8.342;2022-11-20T00:39:26;8.90;99.90
33825;DHT22;20127;48.962;8.342;2022-11-20T00:42:42;8.90;99.90
33825;DHT22;20127;48.962;8.342;2022-11-20T00:45:44;9.00;99.90
33825;DHT22;20127;48.962;8.342;2022-11-20T00:48:46;9.00;99.90
33825;DHT22;20127;48.962;8.342;2022-11-20T00:51:48;9.00;99.90
33825;DHT22;20127;48.962;8.342;2022-11-20T00:54:50;9.10;99.90
33825;DHT22;20127;48.962;8.342;2022-11-20T00:57:53;9.10;99.90
33825;DHT22;20127;48.962;8.342;2022-11-20T01:01:00;9.10;99.90
33825;DHT22;20127;48.962;8.342;2022-11-20T01:04:02;9.10;99.90
33825;DHT22;20127;48.962;8.342;2022-11-20T01:07:04;9.10;99.90
33825;DHT22;20127;48.962;8.342;2022-11-20T01:10:07;9.10;99.90
33825;DHT22;20127;48.962;8.342;2022-11-20T01:13:12;9.10;99.90
33825;DHT22;20127;48.962;8.342;2022-11-20T01:16:41;9.20;99.90
33825;DHT22;20127;48.962;8.342;2022-11-20T01:19:48;9.30;99.90
33825;DHT22;20127;48.962;8.342;2022-11-20T01:22:50;9.30;99.90
33825;DHT22;20127;48.962;8.342;2022-11-20T01:25:52;9.30;99.90
33825;DHT22;20127;48.962;8.342;2022-11-20T01:28:56;9.30;99.90
33825;DHT22;20127;48.962;8.342;2022-11-20T01:31:58;9.30;99.90
33825;DHT22;20127;48.962;8.342;2022-11-20T01:35:00;9.30;99.90
33825;DHT22;20127;48.962;8.342;2022-11-20T01:38:02;9.30;99.90
33825;DHT22;20127;48.962;8.342;2022-11-20T01:41:04;9.30;99.90
33825;DHT22;20127;48.962;8.342;2022-11-20T01:44:13;9.30;99.90
33825;DHT22;20127;48.962;8.342;2022-11-20T01:47:17;9.20;99.90
33825;DHT22;20127;48.962;8.342;2022-11-20T01:50:23;9.10;99.90
33825;DHT22;20127;48.962;8.342;2022-11-20T01:53:28;9.00;99.90
33825;DHT22;20127;48.962;8.342;2022-11-20T01:56:36;8.90;99.90
33825;DHT22;20127;48.962;8.342;2022-11-20T01:59:43;8.90;99.90
33825;DHT22;20127;48.962;8.342;2022-11-20T02:03:28;8.90;99.90
33825;DHT22;20127;48.962;8.342;2022-11-20T02:06:52;8.90;99.90
33825;DHT22;20127;48.962;8.342;2022-11-20T02:10:06;8.90;99.90
33825;DHT22;20127;48.962;8.342;2022-11-20T02:13:19;9.00;99.90
33825;DHT22;20127;48.962;8.342;2022-11-20T02:16:45;9.20;99.90
33825;DHT22;20127;48.962;8.342;2022-11-20T02:19:48;9.20;99.90
33825;DHT22;20127;48.962;8.342;2022-11-20T02:22:57;9.40;99.90
33825;DHT22;20127;48.962;8.342;2022-11-20T02:26:04;9.30;99.90
33825;DHT22;20127;48.962;8.342;2022-11-20T02:29:25;9.40;99.90
33825;DHT22;20127;48.962;8.342;2022-11-20T02:32:30;9.40;99.90
33825;DHT22;20127;48.962;8.342;2022-11-20T02:36:33;9.50;99.90
33825;DHT22;20127;48.962;8.342;2022-11-20T02:40:12;9.50;99.90
33825;DHT22;20127;48.962;8.342;2022-11-20T03:19:55;9.70;99.90
33825;DHT22;20127;48.962;8.342;2022-11-20T03:23:01;9.70;99.90
33825;DHT22;20127;48.962;8.342;2022-11-20T03:26:10;9.70;99.90
33825;DHT22;20127;48.962;8.342;2022-11-20T03:29:32;9.70;99.90
33825;DHT22;20127;48.962;8.342;2022-11-20T03:32:40;9.70;99.90
33825;DHT22;20127;48.962;8.342;2022-11-20T03:39:35;9.70;99.90
33825;DHT22;20127;48.962;8.342;2022-11-20T03:43:09;9.70;99.90
33825;DHT22;20127;48.962;8.342;2022-11-20T04:03:05;9.80;99.90
33825;DHT22;20127;48.962;8.342;2022-11-20T04:06:54;9.70;99.90
33825;DHT22;20127;48.962;8.342;2022-11-20T04:18:15;9.80;99.90
33825;DHT22;20127;48.962;8.342;2022-11-20T04:22:03;9.80;99.90
33825;DHT22;20127;48.962;8.342;2022-11-20T04:27:09;9.90;99.90
33825;DHT22;20127;48.962;8.342;2022-11-20T04:33:53;9.90;99.90
33825;DHT22;20127;48.962;8.342;2022-11-20T04:37:03;9.90;99.90
33825;DHT22;20127;48.962;8.342;2022-11-20T04:40:08;10.00;99.90
33825;DHT22;20127;48.962;8.342;2022-11-20T04:43:29;10.00;99.90
33825;DHT22;20127;48.962;8.342;2022-11-20T04:46:39;10.00;99.90
33825;DHT22;20127;48.962;8.342;2022-11-20T04:49:50;10.00;99.90
33825;DHT22;20127;48.962;8.342;2022-11-20T04:56:53;10.00;99.90
33825;DHT22;20127;48.962;8.342;2022-11-20T04:59:56;10.00;99.90
33825;DHT22;20127;48.962;8.342;2022-11-20T05:02:57;10.00;99.90
33825;DHT22;20127;48.962;8.342;2022-11-20T05:06:05;10.00;99.90
33825;DHT22;20127;48.962;8.342;2022-11-20T05:09:07;10.00;99.90
33825;DHT22;20127;48.962;8.342;2022-11-20T05:12:09;10.00;99.90
33825;DHT22;20127;48.962;8.342;2022-11-20T05:15:16;10.00;99.90
33825;DHT22;20127;48.962;8.342;2022-11-20T05:18:18;10.10;99.90
33825;DHT22;20127;48.962;8.342;2022-11-20T05:21:22;10.10;99.90
33825;DHT22;20127;48.962;8.342;2022-11-20T05:24:24;10.10;99.90
33825;DHT22;20127;48.962;8.342;2022-11-20T05:27:26;10.00;99.90
33825;DHT22;20127;48.962;8.342;2022-11-20T05:30:41;10.00;99.90
33825;DHT22;20127;48.962;8.342;2022-11-20T05:34:06;9.90;99.90
33825;DHT22;20127;48.962;8.342;2022-11-20T05:37:10;10.00;99.90
33825;DHT22;20127;48.962;8.342;2022-11-20T05:40:12;10.00;99.90
33825;DHT22;20127;48.962;8.342;2022-11-20T05:43:16;10.00;99.90
33825;DHT22;20127;48.962;8.342;2022-11-20T05:46:22;10.00;99.90
33825;DHT22;20127;48.962;8.342;2022-11-20T05:49:36;10.00;99.90
33825;DHT22;20127;48.962;8.342;2022-11-20T05:52:42;10.00;99.90
33825;DHT22;20127;48.962;8.342;2022-11-20T05:55:44;10.00;99.90
33825;DHT22;20127;48.962;8.342;2022-11-20T05:59:06;10.00;99.90
33825;DHT22;20127;48.962;8.342;2022-11-20T06:02:25;10.00;99.90
33825;DHT22;20127;48.962;8.342;2022-11-20T06:05:27;10.00;99.90
33825;DHT22;20127;48.962;8.342;2022-11-20T06:08:46;10.00;99.90
33825;DHT22;20127;48.962;8.342;2022-11-20T06:11:58;10.00;99.90
33825;DHT22;20127;48.962;8.342;2022-11-20T06:15:05;10.00;99.90
33825;DHT22;20127;48.962;8.342;2022-11-20T06:18:25;10.00;99.90
33825;DHT22;20127;48.962;8.342;2022-11-20T06:21:37;10.00;99.90
33825;DHT22;20127;48.962;8.342;2022-11-20T06:24:43;10.00;99.90
33825;DHT22;20127;48.962;8.342;2022-11-20T06:27:45;10.00;99.90
33825;DHT22;20127;48.962;8.342;2022-11-20T06:30:49;10.00;99.90
33825;DHT22;20127;48.962;8.342;2022-11-20T06:34:12;10.00;99.90
33825;DHT22;20127;48.962;8.342;2022-11-20T06:37:45;10.00;99.90
33825;DHT22;20127;48.962;8.342;2022-11-20T06:45:59;10.00;99.90
33825;DHT22;20127;48.962;8.342;2022-11-20T08:11:54;10.00;99.90
33825;DHT22;20127;48.962;8.342;2022-11-20T08:15:13;10.00;99.90
33825;DHT22;20127;48.962;8.342;2022-11-20T08:18:15;10.00;99.90
33825;DHT22;20127;48.962;8.342;2022-11-20T08:21:17;10.00;99.90
33825;DHT22;20127;48.962;8.342;2022-11-20T08:24:19;10.00;99.90
33825;DHT22;20127;48.962;8.342;2022-11-20T08:27:22;10.00;99.90
33825;DHT22;20127;48.962;8.342;2022-11-20T08:30:24;10.00;99.90
33825;DHT22;20127;48.962;8.342;2022-11-20T08:33:26;10.10;99.90
33825;DHT22;20127;48.962;8.342;2022-11-20T08:36:28;10.10;99.90
33825;DHT22;20127;48.962;8.342;2022-11-20T08:39:29;10.20;99.90
33825;DHT22;20127;48.962;8.342;2022-11-20T08:42:33;10.20;99.90
33825;DHT22;20127;48.962;8.342;2022-11-20T08:45:34;10.20;99.90
33825;DHT22;20127;48.962;8.342;2022-11-20T08:48:36;10.20;99.90
33825;DHT22;20127;48.962;8.342;2022-11-20T08:51:38;10.30;99.90
33825;DHT22;20127;48.962;8.342;2022-11-20T08:54:40;10.30;99.90
33825;DHT22;20127;48.962;8.342;2022-11-20T08:57:43;10.30;99.90
33825;DHT22;20127;48.962;8.342;2022-11-20T09:00:45;10.30;99.90
33825;DHT22;20127;48.962;8.342;2022-11-20T09:03:47;10.30;99.90
33825;DHT22;20127;48.962;8.342;2022-11-20T09:06:49;10.40;99.90
33825;DHT22;20127;48.962;8.342;2022-11-20T09:09:51;10.40;99.90
33825;DHT22;20127;48.962;8.342;2022-11-20T09:12:55;10.40;99.90
33825;DHT22;20127;48.962;8.342;2022-11-20T09:15:58;10.40;99.90
33825;DHT22;20127;48.962;8.342;2022-11-20T09:19:00;10.30;99.90
33825;DHT22;20127;48.962;8.342;2022-11-20T09:22:02;10.20;99.90
33825;DHT22;20127;48.962;8.342;2022-11-20T09:25:04;10.20;99.90
33825;DHT22;20127;48.962;8.342;2022-11-20T09:28:08;10.20;99.90
33825;DHT22;20127;48.962;8.342;2022-11-20T09:31:22;10.20;99.90
33825;DHT22;20127;48.962;8.342;2022-11-20T09:34:24;10.10;99.90
33825;DHT22;20127;48.962;8.342;2022-11-20T09:37:26;10.20;99.90
33825;DHT22;20127;48.962;8.342;2022-11-20T09:40:29;10.20;99.90
33825;DHT22;20127;48.962;8.342;2022-11-20T09:43:44;10.20;99.90
33825;DHT22;20127;48.962;8.342;2022-11-20T09:46:53;10.10;99.90
33825;DHT22;20127;48.962;8.342;2022-11-20T09:49:59;10.10;99.90
33825;DHT22;20127;48.962;8.342;2022-11-20T09:53:19;10.30;99.90
33825;DHT22;20127;48.962;8.342;2022-11-20T09:56:24;10.30;99.90
33825;DHT22;20127;48.962;8.342;2022-11-20T09:59:33;10.20;99.90
33825;DHT22;20127;48.962;8.342;2022-11-20T10:02:40;10.20;99.90
33825;DHT22;20127;48.962;8.342;2022-11-20T10:05:45;10.20;99.90
33825;DHT22;20127;48.962;8.342;2022-11-20T10:08:57;10.20;99.90
33825;DHT22;20127;48.962;8.342;2022-11-20T10:12:11;10.20;99.90
33825;DHT22;20127;48.962;8.342;2022-11-20T10:15:25;10.30;99.90
33825;DHT22;20127;48.962;8.342;2022-11-20T10:18:39;10.40;99.90
33825;DHT22;20127;48.962;8.342;2022-11-20T10:21:55;10.50;99.90
33825;DHT22;20127;48.962;8.342;2022-11-20T10:25:06;10.60;99.90
33825;DHT22;20127;48.962;8.342;2022-11-20T10:28:23;10.70;99.90
33825;DHT22;20127;48.962;8.342;2022-11-20T10:31:31;10.90;99.90
33825;DHT22;20127;48.962;8.342;2022-11-20T10:34:41;11.10;99.90
33825;DHT22;20127;48.962;8.342;2022-11-20T10:37:49;11.20;99.90
33825;DHT22;20127;48.962;8.342;2022-11-20T10:40:53;11.40;99.90
33825;DHT22;20127;48.962;8.342;2022-11-20T10:44:17;11.60;99.90
33825;DHT22;20127;48.962;8.342;2022-11-20T10:47:44;11.60;99.90
33825;DHT22;20127;48.962;8.342;2022-11-20T10:54:19;11.70;99.90
33825;DHT22;20127;48.962;8.342;2022-11-20T10:57:32;11.80;99.90
33825;DHT22;20127;48.962;8.342;2022-11-20T11:00:38;11.90;99.90
33825;DHT22;20127;48.962;8.342;2022-11-20T11:03:42;11.90;99.90
33825;DHT22;20127;48.962;8.342;2022-11-20T11:06:47;11.90;99.90
33825;DHT22;20127;48.962;8.342;2022-11-20T11:09:52;12.00;99.90
33825;DHT22;20127;48.962;8.342;2022-11-20T11:12:54;12.00;99.90
33825;DHT22;20127;48.962;8.342;2022-11-20T11:15:56;11.90;99.90
33825;DHT22;20127;48.962;8.342;2022-11-20T11:19:12;12.00;99.90
33825;DHT22;20127;48.962;8.342;2022-11-20T11:22:17;11.90;99.90
33825;DHT22;20127;48.962;8.342;2022-11-20T11:25:22;11.90;99.90
33825;DHT22;20127;48.962;8.342;2022-11-20T11:28:25;11.90;99.90
33825;DHT22;20127;48.962;8.342;2022-11-20T11:31:29;12.00;99.90
33825;DHT22;20127;48.962;8.342;2022-11-20T11:34:33;12.40;99.90
33825;DHT22;20127;48.962;8.342;2022-11-20T11:37:37;12.90;99.90
33825;DHT22;20127;48.962;8.342;2022-11-20T11:40:39;13.50;99.90
33825;DHT22;20127;48.962;8.342;2022-11-20T11:43:51;13.90;99.90
33825;DHT22;20127;48.962;8.342;2022-11-20T11:47:20;14.40;99.90
33825;DHT22;20127;48.962;8.342;2022-11-20T11:50:25;14.80;99.90
33825;DHT22;20127;48.962;8.342;2022-11-20T11:53:28;15.30;99.90
33825;DHT22;20127;48.962;8.342;2022-11-20T11:56:31;15.60;99.90
33825;DHT22;20127;48.962;8.342;2022-11-20T11:59:44;15.90;99.90
33825;DHT22;20127;48.962;8.342;2022-11-20T12:02:57;16.10;99.90
33825;DHT22;20127;48.962;8.342;2022-11-20T12:06:05;16.20;99.90
33825;DHT22;20127;48.962;8.342;2022-11-20T12:09:10;16.10;99.90
33825;DHT22;20127;48.962;8.342;2022-11-20T12:12:16;15.80;99.90
33825;DHT22;20127;48.962;8.342;2022-11-20T12:15:28;15.30;99.90
33825;DHT22;20127;48.962;8.342;2022-11-20T12:18:30;15.10;99.90
33825;DHT22;20127;48.962;8.342;2022-11-20T12:21:39;15.20;99.90
33825;DHT22;20127;48.962;8.342;2022-11-20T12:24:53;15.40;99.90
33825;DHT22;20127;48.962;8.342;2022-11-20T12:28:07;15.40;99.90
33825;DHT22;20127;48.962;8.342;2022-11-20T12:31:30;15.40;99.90
33825;DHT22;20127;48.962;8.342;2022-11-20T12:34:44;15.50;99.90
33825;DHT22;20127;48.962;8.342;2022-11-20T12:37:57;15.50;99.90
33825;DHT22;20127;48.962;8.342;2022-11-20T12:41:12;15.70;99.90
33825;DHT22;20127;48.962;8.342;2022-11-20T12:44:49;15.80;99.90
33825;DHT22;20127;48.962;8.342;2022-11-20T12:48:26;15.70;99.90
33825;DHT22;20127;48.962;8.342;2022-11-20T12:51:48;15.60;99.90
33825;DHT22;20127;48.962;8.342;2022-11-20T12:55:10;15.60;99.90
33825;DHT22;20127;48.962;8.342;2022-11-20T12:58:21;15.50;99.90
33825;DHT22;20127;48.962;8.342;2022-11-20T13:01:30;15.50;99.90
33825;DHT22;20127;48.962;8.342;2022-11-20T13:04:51;15.50;99.90
33825;DHT22;20127;48.962;8.342;2022-11-20T13:07:56;15.70;99.90
33825;DHT22;20127;48.962;8.342;2022-11-20T13:11:07;15.80;99.90
33825;DHT22;20127;48.962;8.342;2022-11-20T13:14:17;15.90;99.90
33825;DHT22;20127;48.962;8.342;2022-11-20T13:17:24;15.80;99.90
33825;DHT22;20127;48.962;8.342;2022-11-20T13:20:30;15.70;99.90
33825;DHT22;20127;48.962;8.342;2022-11-20T13:23:34;15.70;99.90
33825;DHT22;20127;48.962;8.342;2022-11-20T13:26:37;15.70;99.90
33825;DHT22;20127;48.962;8.342;2022-11-20T13:29:42;15.70;99.90
33825;DHT22;20127;48.962;8.342;2022-11-20T13:32:49;15.70;99.90
33825;DHT22;20127;48.962;8.342;2022-11-20T13:35:56;15.60;99.90
33825;DHT22;20127;48.962;8.342;2022-11-20T13:38:59;15.20;99.90
33825;DHT22;20127;48.962;8.342;2022-11-20T13:42:15;14.80;99.90
33825;DHT22;20127;48.962;8.342;2022-11-20T13:45:24;14.60;99.90
33825;DHT22;20127;48.962;8.342;2022-11-20T13:48:30;14.40;99.90
33825;DHT22;20127;48.962;8.342;2022-11-20T13:51:40;14.30;99.90
33825;DHT22;20127;48.962;8.342;2022-11-20T13:55:11;14.20;99.90
33825;DHT22;20127;48.962;8.342;2022-11-20T13:58:25;14.20;99.90
33825;DHT22;20127;48.962;8.342;2022-11-20T14:01:32;14.20;99.90
33825;DHT22;20127;48.962;8.342;2022-11-20T14:04:36;14.50;99.90
33825;DHT22;20127;48.962;8.342;2022-11-20T15:56:30;11.10;99.90
33825;DHT22;20127;48.962;8.342;2022-11-20T15:59:43;11.10;99.90
33825;DHT22;20127;48.962;8.342;2022-11-20T16:02:45;11.10;99.90
33825;DHT22;20127;48.962;8.342;2022-11-20T16:05:47;11.20;99.90
33825;DHT22;20127;48.962;8.342;2022-11-20T16:08:51;11.20;99.90
33825;DHT22;20127;48.962;8.342;2022-11-20T16:11:55;11.20;99.90
33825;DHT22;20127;48.962;8.342;2022-11-20T16:14:58;11.20;99.90
33825;DHT22;20127;48.962;8.342;2022-11-20T16:18:17;11.20;99.90
33825;DHT22;20127;48.962;8.342;2022-11-20T16:21:19;11.20;99.90
33825;DHT22;20127;48.962;8.342;2022-11-20T16:24:21;11.30;99.90
33825;DHT22;20127;48.962;8.342;2022-11-20T16:27:24;11.20;99.90
33825;DHT22;20127;48.962;8.342;2022-11-20T16:30:26;11.20;99.90
33825;DHT22;20127;48.962;8.342;2022-11-20T16:33:27;11.30;99.90
33825;DHT22;20127;48.962;8.342;2022-11-20T16:36:30;11.30;99.90
33825;DHT22;20127;48.962;8.342;2022-11-20T16:39:31;11.40;99.90
33825;DHT22;20127;48.962;8.342;2022-11-20T16:42:35;11.40;99.90
33825;DHT22;20127;48.962;8.342;2022-11-20T16:45:41;11.40;99.90
33825;DHT22;20127;48.962;8.342;2022-11-20T16:48:44;11.40;99.90
33825;DHT22;20127;48.962;8.342;2022-11-20T16:51:45;11.30;99.90
33825;DHT22;20127;48.962;8.342;2022-11-20T16:54:47;11.30;99.90
33825;DHT22;20127;48.962;8.342;2022-11-20T16:57:52;11.20;99.90
33825;DHT22;20127;48.962;8.342;2022-11-20T17:00:54;11.10;99.90
33825;DHT22;20127;48.962;8.342;2022-11-20T17:03:58;11.10;99.90
33825;DHT22;20127;48.962;8.342;2022-11-20T17:07:00;11.10;99.90
33825;DHT22;20127;48.962;8.342;2022-11-20T17:10:02;11.10;99.90
33825;DHT22;20127;48.962;8.342;2022-11-20T17:13:05;11.10;99.90
33825;DHT22;20127;48.962;8.342;2022-11-20T17:16:09;11.10;99.90
33825;DHT22;20127;48.962;8.342;2022-11-20T17:19:12;11.10;99.90
33825;DHT22;20127;48.962;8.342;2022-11-20T17:22:14;11.00;99.90
33825;DHT22;20127;48.962;8.342;2022-11-20T17:25:16;10.90;99.90
33825;DHT22;20127;48.962;8.342;2022-11-20T17:28:19;10.80;99.90
33825;DHT22;20127;48.962;8.342;2022-11-20T17:31:21;10.70;99.90
33825;DHT22;20127;48.962;8.342;2022-11-20T17:34:23;10.70;99.90
33825;DHT22;20127;48.962;8.342;2022-11-20T17:37:25;10.60;99.90
33825;DHT22;20127;48.962;8.342;2022-11-20T17:40:26;10.60;99.90
33825;DHT22;20127;48.962;8.342;2022-11-20T17:43:30;10.50;99.90
33825;DHT22;20127;48.962;8.342;2022-11-20T17:46:32;10.50;99.90
33825;DHT22;20127;48.962;8.342;2022-11-20T17:49:34;10.50;99.90
33825;DHT22;20127;48.962;8.342;2022-11-20T17:52:36;10.50;99.90
33825;DHT22;20127;48.962;8.342;2022-11-20T17:55:38;10.50;99.90
33825;DHT22;20127;48.962;8.342;2022-11-20T17:59:05;10.60;99.90
33825;DHT22;20127;48.962;8.342;2022-11-20T18:02:08;10.30;99.90
33825;DHT22;20127;48.962;8.342;2022-11-20T18:05:10;10.20;99.90
33825;DHT22;20127;48.962;8.342;2022-11-20T18:08:12;10.10;99.90
33825;DHT22;20127;48.962;8.342;2022-11-20T18:11:15;10.00;99.90
33825;DHT22;20127;48.962;8.342;2022-11-20T18:14:19;9.90;99.90
33825;DHT22;20127;48.962;8.342;2022-11-20T18:17:28;9.70;99.90
33825;DHT22;20127;48.962;8.342;2022-11-20T18:20:30;9.50;99.90
33825;DHT22;20127;48.962;8.342;2022-11-20T18:23:32;9.50;99.90
33825;DHT22;20127;48.962;8.342;2022-11-20T18:26:34;9.40;99.90
33825;DHT22;20127;48.962;8.342;2022-11-20T18:29:38;9.20;99.90
33825;DHT22;20127;48.962;8.342;2022-11-20T18:32:41;9.10;99.90
33825;DHT22;20127;48.962;8.342;2022-11-20T18:35:43;9.00;99.90
33825;DHT22;20127;48.962;8.342;2022-11-20T18:38:46;8.90;99.90
33825;DHT22;20127;48.962;8.342;2022-11-20T18:41:49;8.90;99.90
33825;DHT22;20127;48.962;8.342;2022-11-20T18:45:10;8.90;99.90
33825;DHT22;20127;48.962;8.342;2022-11-20T18:48:11;8.80;99.90
33825;DHT22;20127;48.962;8.342;2022-11-20T18:51:16;8.80;99.90
33825;DHT22;20127;48.962;8.342;2022-11-20T18:54:17;8.80;99.90
33825;DHT22;20127;48.962;8.342;2022-11-20T18:57:21;8.80;99.90
33825;DHT22;20127;48.962;8.342;2022-11-20T19:00:25;8.80;99.90
33825;DHT22;20127;48.962;8.342;2022-11-20T19:03:26;8.70;99.90
33825;DHT22;20127;48.962;8.342;2022-11-20T19:06:28;8.70;99.90
33825;DHT22;20127;48.962;8.342;2022-11-20T19:09:30;8.80;99.90
33825;DHT22;20127;48.962;8.342;2022-11-20T19:12:32;8.80;99.90
33825;DHT22;20127;48.962;8.342;2022-11-20T19:15:35;8.70;99.90
33825;DHT22;20127;48.962;8.342;2022-11-20T19:18:37;8.70;99.90
33825;DHT22;20127;48.962;8.342;2022-11-20T19:21:39;8.90;99.90
33825;DHT22;20127;48.962;8.342;2022-11-20T19:24:41;8.80;99.90
33825;DHT22;20127;48.962;8.342;2022-11-20T19:27:43;8.80;99.90
33825;DHT22;20127;48.962;8.342;2022-11-20T19:30:46;8.70;99.90
33825;DHT22;20127;48.962;8.342;2022-11-20T19:33:52;8.60;99.90
33825;DHT22;20127;48.962;8.342;2022-11-20T19:36:54;8.60;99.90
33825;DHT22;20127;48.962;8.342;2022-11-20T19:39:55;8.60;99.90
33825;DHT22;20127;48.962;8.342;2022-11-20T19:42:59;8.60;99.90
33825;DHT22;20127;48.962;8.342;2022-11-20T19:46:02;8.60;99.90
33825;DHT22;20127;48.962;8.342;2022-11-20T19:49:04;8.60;99.90
33825;DHT22;20127;48.962;8.342;2022-11-20T19:52:06;8.50;99.90
33825;DHT22;20127;48.962;8.342;2022-11-20T19:55:08;8.50;99.90
33825;DHT22;20127;48.962;8.342;2022-11-20T19:58:10;8.50;99.90
33825;DHT22;20127;48.962;8.342;2022-11-20T20:01:15;8.50;99.90
33825;DHT22;20127;48.962;8.342;2022-11-20T20:04:17;8.60;99.90
33825;DHT22;20127;48.962;8.342;2022-11-20T20:07:19;8.50;99.90
33825;DHT22;20127;48.962;8.342;2022-11-20T20:10:21;8.60;99.90
33825;DHT22;20127;48.962;8.342;2022-11-20T20:13:23;8.50;99.90
33825;DHT22;20127;48.962;8.342;2022-11-20T20:16:26;8.50;99.90
33825;DHT22;20127;48.962;8.342;2022-11-20T20:19:28;8.50;99.90
33825;DHT22;20127;48.962;8.342;2022-11-20T20:22:30;8.40;99.90
33825;DHT22;20127;48.962;8.342;2022-11-20T20:25:31;8.40;99.90
33825;DHT22;20127;48.962;8.342;2022-11-20T20:28:35;8.30;99.90
33825;DHT22;20127;48.962;8.342;2022-11-20T20:31:38;8.30;99.90
33825;DHT22;20127;48.962;8.342;2022-11-20T20:34:40;8.30;99.90
33825;DHT22;20127;48.962;8.342;2022-11-20T20:37:42;8.40;99.90
33825;DHT22;20127;48.962;8.342;2022-11-20T20:40:47;8.40;99.90
33825;DHT22;20127;48.962;8.342;2022-11-20T20:43:50;8.30;99.90
33825;DHT22;20127;48.962;8.342;2022-11-20T20:47:10;8.20;99.90
33825;DHT22;20127;48.962;8.342;2022-11-20T20:50:12;8.10;99.90
33825;DHT22;20127;48.962;8.342;2022-11-20T20:53:14;7.90;99.90
33825;DHT22;20127;48.962;8.342;2022-11-20T20:56:16;7.80;99.90
33825;DHT22;20127;48.962;8.342;2022-11-20T20:59:18;7.70;99.90
33825;DHT22;20127;48.962;8.342;2022-11-20T21:02:21;7.70;99.90
33825;DHT22;20127;48.962;8.342;2022-11-20T21:05:23;7.70;99.90
33825;DHT22;20127;48.962;8.342;2022-11-20T21:08:25;7.70;99.90
33825;DHT22;20127;48.962;8.342;2022-11-20T21:11:27;7.70;99.90
33825;DHT22;20127;48.962;8.342;2022-11-20T21:14:29;7.80;99.90
33825;DHT22;20127;48.962;8.342;2022-11-20T21:17:32;7.90;99.90
33825;DHT22;20127;48.962;8.342;2022-11-20T21:20:34;8.10;99.90
33825;DHT22;20127;48.962;8.342;2022-11-20T21:23:54;8.20;99.90
33825;DHT22;20127;48.962;8.342;2022-11-20T21:26:56;8.30;99.90
33825;DHT22;20127;48.962;8.342;2022-11-20T21:29:57;8.40;99.90
33825;DHT22;20127;48.962;8.342;2022-11-20T21:33:01;8.50;99.90
33825;DHT22;20127;48.962;8.342;2022-11-20T21:36:03;8.50;99.90
33825;DHT22;20127;48.962;8.342;2022-11-20T21:39:05;8.60;99.90
33825;DHT22;20127;48.962;8.342;2022-11-20T21:42:06;8.50;99.90
33825;DHT22;20127;48.962;8.342;2022-11-20T21:45:08;8.60;99.90
33825;DHT22;20127;48.962;8.342;2022-11-20T21:48:11;8.60;99.90
33825;DHT22;20127;48.962;8.342;2022-11-20T21:51:14;8.60;99.90
33825;DHT22;20127;48.962;8.342;2022-11-20T21:54:17;8.60;99.90
33825;DHT22;20127;48.962;8.342;2022-11-20T21:57:18;8.60;99.90
33825;DHT22;20127;48.962;8.342;2022-11-20T22:00:20;8.60;99.90
33825;DHT22;20127;48.962;8.342;2022-11-20T22:03:24;8.60;99.90
33825;DHT22;20127;48.962;8.342;2022-11-20T22:06:29;8.60;99.90
33825;DHT22;20127;48.962;8.342;2022-11-20T22:09:31;8.60;99.90
33825;DHT22;20127;48.962;8.342;2022-11-20T22:12:33;8.70;99.90
33825;DHT22;20127;48.962;8.342;2022-11-20T22:15:35;8.70;99.90
33825;DHT22;20127;48.962;8.342;2022-11-20T22:18:40;8.70;99.90
33825;DHT22;20127;48.962;8.342;2022-11-20T22:21:43;8.70;99.90
33825;DHT22;20127;48.962;8.342;2022-11-20T22:24:44;8.80;99.90
33825;DHT22;20127;48.962;8.342;2022-11-20T22:27:46;8.80;99.90
33825;DHT22;20127;48.962;8.342;2022-11-20T22:30:48;8.90;99.90
33825;DHT22;20127;48.962;8.342;2022-11-20T22:33:51;8.90;99.90
33825;DHT22;20127;48.962;8.342;2022-11-20T22:36:53;8.80;99.90
33825;DHT22;20127;48.962;8.342;2022-11-20T22:39:55;8.80;99.90
33825;DHT22;20127;48.962;8.342;2022-11-20T22:42:56;8.80;99.90
33825;DHT22;20127;48.962;8.342;2022-11-20T22:46:01;8.80;99.90
33825;DHT22;20127;48.962;8.342;2022-11-20T22:49:06;8.80;99.90
33825;DHT22;20127;48.962;8.342;2022-11-20T22:52:08;8.70;99.90
33825;DHT22;20127;48.962;8.342;2022-11-20T22:55:10;8.70;99.90
33825;DHT22;20127;48.962;8.342;2022-11-20T22:58:12;8.60;99.90
33825;DHT22;20127;48.962;8.342;2022-11-20T23:01:15;8.70;99.90
33825;DHT22;20127;48.962;8.342;2022-11-20T23:04:19;8.70;99.90
33825;DHT22;20127;48.962;8.342;2022-11-20T23:07:20;8.70;99.90
33825;DHT22;20127;48.962;8.342;2022-11-20T23:10:22;8.70;99.90
33825;DHT22;20127;48.962;8.342;2022-11-20T23:13:24;8.80;99.90
33825;DHT22;20127;48.962;8.342;2022-11-20T23:16:27;8.70;99.90
33825;DHT22;20127;48.962;8.342;2022-11-20T23:19:30;8.80;99.90
33825;DHT22;20127;48.962;8.342;2022-11-20T23:22:32;8.80;99.90
33825;DHT22;20127;48.962;8.342;2022-11-20T23:25:34;8.90;99.90
33825;DHT22;20127;48.962;8.342;2022-11-20T23:28:36;8.90;99.90
33825;DHT22;20127;48.962;8.342;2022-11-20T23:31:38;8.90;99.90
33825;DHT22;20127;48.962;8.342;2022-11-20T23:34:41;9.00;99.90
33825;DHT22;20127;48.962;8.342;2022-11-20T23:37:43;8.90;99.90
33825;DHT22;20127;48.962;8.342;2022-11-20T23:40:46;8.70;99.90
33825;DHT22;20127;48.962;8.342;2022-11-20T23:43:48;8.60;99.90
33825;DHT22;20127;48.962;8.342;2022-11-20T23:46:50;8.40;99.90
33825;DHT22;20127;48.962;8.342;2022-11-20T23:49:53;8.30;99.90
33825;DHT22;20127;48.962;8.342;2022-11-20T23:52:55;8.30;99.90
33825;DHT22;20127;48.962;8.342;2022-11-20T23:55:58;8.30;99.90
33825;DHT22;20127;48.962;8.342;2022-11-20T23:59:00;8.20;99.90
